Time;durP1;ratioP1;P1;durP2;ratioP2;P2;SDS_P1;SDS_P2;PMS_P1;PMS_P2;Temp;Humidity;BMP_temperature;BMP_pressure;BME280_temperature;BME280_humidity;BME280_pressure;Samples;Min_cycle;Max_cycle;Signal;HPM_P1;HPM_P2
2023/03/21 05:34:12;;;;;;;38.47;25.52;;;9.40;99.90;;;;;;5035624;28;20039;-84
2023/03/21 05:36:38;;;;;;;34.65;24.90;;;9.40;99.90;;;;;;5005161;28;20151;-84
2023/03/21 05:39:04;;;;;;;33.42;24.60;;;9.40;99.90;;;;;;5021218;28;20111;-85
2023/03/21 05:41:30;;;;;;;30.38;23.83;;;9.40;99.90;;;;;;5023734;28;20063;-85
2023/03/21 05:44:02;;;;;;;35.40;26.75;;;9.40;99.90;;;;;;5011073;28;20181;-87
2023/03/21 05:50:37;;;;;;;35.08;24.98;;;9.30;99.90;;;;;;5025087;28;20369;-89
2023/03/21 05:57:37;;;;;;;37.15;26.88;;;9.40;99.90;;;;;;5004360;28;20076;-88
2023/03/21 06:01:05;;;;;;;35.03;24.98;;;9.40;99.90;;;;;;4961761;28;20465;-88
2023/03/21 06:03:31;;;;;;;29.40;23.73;;;9.40;99.90;;;;;;4953232;28;20042;-86
2023/03/21 06:05:57;;;;;;;34.78;25.70;;;9.40;99.90;;;;;;5011185;28;20505;-86
2023/03/21 06:08:22;;;;;;;35.30;24.52;;;9.40;99.90;;;;;;5012911;28;20041;-86
2023/03/21 06:10:54;;;;;;;34.10;25.30;;;9.50;99.90;;;;;;5011493;28;20049;-89
2023/03/21 06:13:20;;;;;;;35.42;26.58;;;9.40;99.90;;;;;;5008159;28;20068;-85
2023/03/21 06:15:46;;;;;;;32.53;24.83;;;9.50;99.90;;;;;;5014719;28;20067;-85
2023/03/21 06:18:11;;;;;;;35.53;24.83;;;9.40;99.90;;;;;;5017532;28;20033;-86
2023/03/21 06:20:37;;;;;;;33.47;25.13;;;9.40;99.90;;;;;;5018423;28;20048;-85
2023/03/21 06:23:03;;;;;;;37.33;27.05;;;9.40;99.90;;;;;;5019656;28;20037;-86
2023/03/21 06:25:43;;;;;;;35.63;25.85;;;9.50;99.90;;;;;;5044933;28;20041;-84
2023/03/21 06:28:09;;;;;;;38.10;27.35;;;9.50;99.90;;;;;;5015116;28;20041;-84
2023/03/21 06:30:35;;;;;;;33.83;26.10;;;9.40;99.90;;;;;;5015222;28;20047;-85
2023/03/21 06:33:02;;;;;;;42.38;29.10;;;9.60;99.90;;;;;;5014753;28;20446;-87
2023/03/21 06:35:27;;;;;;;42.28;28.50;;;9.40;99.90;;;;;;5016141;28;20976;-84
2023/03/21 06:38:02;;;;;;;41.58;27.48;;;9.50;99.90;;;;;;5027745;28;20068;-85
2023/03/21 06:40:31;;;;;;;41.38;27.45;;;9.40;99.90;;;;;;5029673;28;20049;-85
2023/03/21 06:43:50;;;;;;;32.63;25.27;;;9.60;99.90;;;;;;5031433;28;20101;-87
2023/03/21 06:46:33;;;;;;;31.55;23.70;;;9.40;99.90;;;;;;4991878;28;20486;-87
2023/03/21 06:49:02;;;;;;;32.05;23.58;;;10.30;99.90;;;;;;5016520;28;20033;-86
2023/03/21 06:51:28;;;;;;;24.77;19.52;;;9.50;99.90;;;;;;5032517;28;20106;-85
2023/03/21 06:54:00;;;;;;;31.33;22.50;;;9.70;99.90;;;;;;5014086;28;20087;-86
2023/03/21 06:56:25;;;;;;;22.88;17.98;;;9.70;99.90;;;;;;5016825;28;20096;-87
2023/03/21 06:58:51;;;;;;;21.02;17.98;;;10.50;99.90;;;;;;5034024;28;20824;-86
2023/03/21 07:01:16;;;;;;;20.42;16.70;;;9.50;99.90;;;;;;5047739;28;20045;-86
2023/03/21 07:03:44;;;;;;;20.25;16.88;;;9.50;99.90;;;;;;5017564;28;20047;-86
2023/03/21 07:06:55;;;;;;;19.42;16.10;;;9.60;99.90;;;;;;5002335;28;20032;-87
2023/03/21 07:09:27;;;;;;;19.52;15.07;;;9.50;99.90;;;;;;5030420;28;20048;-87
2023/03/21 07:11:52;;;;;;;15.35;12.90;;;9.60;99.90;;;;;;5013278;28;20683;-86
2023/03/21 07:14:37;;;;;;;13.05;11.60;;;9.60;99.90;;;;;;5012027;28;20155;-86
2023/03/21 07:17:07;;;;;;;13.80;11.88;;;9.60;99.90;;;;;;5016230;28;20048;-87
2023/03/21 07:19:32;;;;;;;16.45;12.77;;;9.60;99.90;;;;;;5012596;28;20061;-86
2023/03/21 07:22:00;;;;;;;14.23;12.32;;;9.60;99.90;;;;;;5014536;28;20045;-86
2023/03/21 07:24:26;;;;;;;15.85;13.50;;;9.60;99.90;;;;;;5014040;28;20399;-86
2023/03/21 07:26:52;;;;;;;14.45;12.65;;;9.60;99.90;;;;;;5013062;28;20039;-86
2023/03/21 07:29:20;;;;;;;17.98;15.65;;;9.60;99.90;;;;;;5048669;28;20064;-86
2023/03/21 07:31:50;;;;;;;17.60;15.70;;;10.50;99.90;;;;;;5013161;28;20040;-88
2023/03/21 15:16:09;;;;;;;13.75;6.15;;;12.70;99.90;;;;;;4988236;28;20046;-85
2023/03/21 15:19:00;;;;;;;10.35;5.90;;;12.40;99.90;;;;;;4959190;28;20042;-85
2023/03/21 15:21:31;;;;;;;9.88;5.70;;;12.60;99.90;;;;;;4968967;28;20504;-86
2023/03/21 15:24:43;;;;;;;9.73;6.15;;;12.90;99.90;;;;;;4986899;28;20041;-86
2023/03/21 15:27:16;;;;;;;10.52;5.95;;;12.50;99.90;;;;;;4947026;28;20050;-86
2023/03/21 15:30:02;;;;;;;9.93;5.85;;;12.50;99.90;;;;;;4964128;28;20508;-85
2023/03/21 15:32:52;;;;;;;;;;;;;;;;;;;;;
2023/03/21 15:36:16;;;;;;;9.88;7.07;;;13.00;99.90;;;;;;4968283;28;20455;-85
2023/03/21 15:39:42;;;;;;;13.68;6.60;;;11.50;99.90;;;;;;4955906;28;20052;-86
2023/03/21 15:42:33;;;;;;;12.68;6.80;;;12.50;99.90;;;;;;4965193;28;20411;-86
2023/03/21 15:45:01;;;;;;;8.60;6.38;;;12.50;99.90;;;;;;4951055;28;20035;-85
2023/03/21 15:47:50;;;;;;;11.70;7.57;;;12.50;99.90;;;;;;4949493;28;20066;-86
2023/03/21 15:50:38;;;;;;;12.75;7.32;;;12.30;99.90;;;;;;4966958;28;20046;-86
2023/03/21 15:53:12;;;;;;;9.27;6.43;;;12.40;99.90;;;;;;4966158;28;20451;-85
2023/03/21 15:55:42;;;;;;;9.90;6.45;;;12.40;99.90;;;;;;4966321;28;20045;-85
2023/03/21 15:58:50;;;;;;;11.95;6.63;;;13.40;99.90;;;;;;4956869;28;20038;-86
2023/03/21 16:01:55;;;;;;;12.00;6.68;;;12.30;99.90;;;;;;4978338;28;20519;-85
2023/03/21 16:05:29;;;;;;;13.90;6.68;;;12.30;99.90;;;;;;4950139;28;20035;-88
2023/03/21 16:12:19;;;;;;;8.63;6.25;;;12.30;99.90;;;;;;4963030;28;20105;-86
2023/03/21 16:15:42;;;;;;;11.07;7.20;;;12.30;99.90;;;;;;4965344;28;20548;-86
2023/03/21 16:19:07;;;;;;;11.98;7.38;;;12.30;99.90;;;;;;4978177;28;20493;-86
2023/03/21 16:30:24;;;;;;;11.38;7.38;;;12.30;99.90;;;;;;4943395;28;20059;-85
2023/03/21 16:33:39;;;;;;;9.07;7.22;;;12.30;99.90;;;;;;4971074;23;20035;-87
2023/03/21 16:40:56;;;;;;;14.35;8.18;;;12.30;99.90;;;;;;4893239;29;20061;-86
2023/03/21 16:43:37;;;;;;;14.95;9.15;;;12.00;99.90;;;;;;4891720;29;20056;-85
2023/03/21 16:46:24;;;;;;;12.57;9.73;;;12.50;99.90;;;;;;4915366;29;20110;-87
2023/03/21 16:49:18;;;;;;;13.60;9.50;;;11.60;99.90;;;;;;4929921;29;20179;-87
2023/03/21 16:51:46;;;;;;;14.65;10.38;;;11.50;99.90;;;;;;4916263;28;20440;-86
2023/03/21 16:54:43;;;;;;;11.80;10.48;;;12.10;99.90;;;;;;4932044;29;20126;-87
2023/03/21 16:57:34;;;;;;;14.10;10.48;;;11.70;99.90;;;;;;4920688;29;20070;-85
2023/03/21 17:00:20;;;;;;;14.15;9.90;;;11.20;99.90;;;;;;4919312;29;20138;-87
2023/03/21 17:02:55;;;;;;;12.32;10.57;;;11.10;99.90;;;;;;4933487;29;20138;-87
2023/03/21 17:05:34;;;;;;;12.18;9.90;;;11.00;99.90;;;;;;4936771;28;20553;-86
2023/03/21 17:08:41;;;;;;;15.10;9.93;;;11.10;99.90;;;;;;4944304;28;20039;-85
2023/03/21 17:11:15;;;;;;;12.32;10.75;;;11.30;99.90;;;;;;4917741;29;20043;-86
2023/03/21 17:13:41;;;;;;;15.00;10.93;;;11.20;99.90;;;;;;4919902;29;20474;-86
2023/03/21 17:16:12;;;;;;;12.05;10.38;;;11.10;99.90;;;;;;4912231;29;20667;-87
2023/03/21 17:18:38;;;;;;;13.73;10.63;;;11.10;99.90;;;;;;4928219;29;20499;-86
2023/03/21 17:21:26;;;;;;;11.38;9.90;;;11.10;99.90;;;;;;4924512;29;20067;-86
2023/03/21 17:23:52;;;;;;;12.25;10.05;;;11.10;99.90;;;;;;4913952;28;20134;-85
2023/03/21 17:30:42;;;;;;;15.27;8.80;;;11.10;99.90;;;;;;4941210;28;20090;-88
2023/03/21 17:37:53;;;;;;;16.45;12.25;;;11.40;99.90;;;;;;4986410;28;20040;-87
2023/03/21 17:44:01;;;;;;;20.00;14.40;;;10.30;99.90;;;;;;4990230;28;20548;-86
2023/03/21 17:46:38;;;;;;;18.58;14.48;;;12.20;99.90;;;;;;4960826;28;20038;-86
2023/03/21 17:49:05;;;;;;;17.08;13.35;;;10.90;99.90;;;;;;4958072;28;20074;-87
2023/03/21 17:51:31;;;;;;;18.40;14.18;;;11.80;99.90;;;;;;4974995;28;20436;-86
2023/03/21 17:54:01;;;;;;;21.25;14.25;;;10.80;99.90;;;;;;4955441;28;20053;-85
2023/03/21 17:56:42;;;;;;;17.70;15.02;;;11.50;99.90;;;;;;4979941;28;20121;-85
2023/03/21 17:59:13;;;;;;;16.23;14.43;;;10.80;99.90;;;;;;4976273;28;20129;-85
2023/03/21 18:05:25;;;;;;;17.90;16.02;;;10.10;99.90;;;;;;5019771;23;20057;-85
2023/03/21 18:07:52;;;;;;;20.27;15.80;;;10.60;99.90;;;;;;5000488;28;20045;-84
2023/03/21 18:13:12;;;;;;;18.13;15.93;;;10.60;99.90;;;;;;4996008;28;20404;-85
2023/03/21 18:15:41;;;;;;;17.02;15.27;;;10.30;99.90;;;;;;4993036;28;20042;-85
2023/03/21 18:18:11;;;;;;;19.40;17.48;;;10.50;99.90;;;;;;4988186;28;20056;-85
2023/03/21 18:20:44;;;;;;;18.92;16.02;;;10.50;99.90;;;;;;4974595;28;21579;-87
2023/03/21 18:23:10;;;;;;;20.25;16.50;;;10.50;99.90;;;;;;4976412;28;20512;-85
2023/03/21 18:25:35;;;;;;;22.75;17.08;;;10.40;99.90;;;;;;4975248;28;20260;-86
2023/03/21 18:28:07;;;;;;;22.05;15.82;;;10.40;99.90;;;;;;4979935;28;20476;-86
2023/03/21 18:30:32;;;;;;;19.25;14.85;;;10.40;99.90;;;;;;4975745;28;20034;-86
2023/03/21 18:33:04;;;;;;;21.00;16.45;;;10.40;99.90;;;;;;4977960;28;20053;-85
2023/03/21 18:35:33;;;;;;;29.15;16.73;;;10.40;99.90;;;;;;5005631;28;20038;-86
2023/03/21 18:37:59;;;;;;;19.10;16.58;;;11.10;99.90;;;;;;4991555;28;20041;-85
2023/03/21 18:40:25;;;;;;;19.27;15.70;;;10.30;99.90;;;;;;4979398;28;20093;-85
2023/03/21 18:42:50;;;;;;;19.65;16.83;;;10.30;99.90;;;;;;4975774;28;20148;-86
2023/03/21 18:45:17;;;;;;;18.75;16.80;;;10.30;99.90;;;;;;4979931;28;20152;-87
2023/03/21 18:47:45;;;;;;;20.48;16.98;;;10.30;99.90;;;;;;4991111;28;20187;-86
2023/03/21 18:50:11;;;;;;;19.55;16.77;;;10.30;99.90;;;;;;4980715;28;20673;-86
2023/03/21 18:53:08;;;;;;;19.77;15.77;;;10.30;99.90;;;;;;4997791;28;20141;-85
2023/03/21 18:55:56;;;;;;;19.58;15.15;;;10.90;99.90;;;;;;5009748;28;20104;-86
2023/03/21 18:58:22;;;;;;;17.13;15.43;;;10.10;99.90;;;;;;4997269;28;20042;-86
2023/03/21 19:00:49;;;;;;;18.05;14.50;;;10.20;99.90;;;;;;4978257;28;20033;-86
2023/03/21 19:03:16;;;;;;;16.85;15.15;;;11.10;99.90;;;;;;4973128;28;20713;-86
2023/03/21 19:05:41;;;;;;;19.10;15.18;;;10.60;99.90;;;;;;4991869;28;20101;-85
2023/03/21 19:08:07;;;;;;;17.80;14.93;;;10.20;99.90;;;;;;4996048;28;20041;-86
2023/03/21 19:10:33;;;;;;;23.85;16.80;;;10.20;99.90;;;;;;4977558;28;21586;-85
2023/03/21 19:12:59;;;;;;;16.63;14.43;;;10.30;99.90;;;;;;5006687;28;20144;-85
2023/03/21 19:15:25;;;;;;;18.13;16.15;;;10.20;99.90;;;;;;4978622;28;20042;-86
2023/03/21 19:17:54;;;;;;;18.42;14.93;;;10.20;99.90;;;;;;5007644;28;20050;-85
2023/03/21 19:20:59;;;;;;;;;;;;;;;;;;;;;
2023/03/21 19:23:44;;;;;;;16.48;14.77;;;10.40;99.90;;;;;;4986923;28;20050;-86
2023/03/21 19:26:13;;;;;;;19.40;15.23;;;10.20;99.90;;;;;;4973258;28;20029;-86
2023/03/21 19:28:42;;;;;;;15.25;13.70;;;10.20;99.90;;;;;;4970772;28;20034;-85
2023/03/21 19:31:10;;;;;;;16.98;14.85;;;10.70;99.90;;;;;;4972246;28;20126;-85
2023/03/21 19:33:36;;;;;;;15.68;14.07;;;10.10;99.90;;;;;;4977537;28;20551;-85
2023/03/21 19:36:03;;;;;;;16.27;13.80;;;11.10;99.90;;;;;;4974129;28;20040;-85
2023/03/21 19:38:29;;;;;;;15.45;13.77;;;10.10;99.90;;;;;;4974903;28;20046;-85
2023/03/21 19:41:01;;;;;;;17.00;14.52;;;10.00;99.90;;;;;;4974560;28;20403;-85
2023/03/21 19:43:40;;;;;;;17.35;14.30;;;10.00;99.90;;;;;;4973713;28;20030;-85
2023/03/21 19:46:07;;;;;;;15.63;14.05;;;10.00;99.90;;;;;;4975954;28;20042;-85
2023/03/21 19:48:33;;;;;;;18.17;13.55;;;10.90;99.90;;;;;;4975731;28;20400;-86
2023/03/21 19:51:09;;;;;;;17.73;14.57;;;10.10;99.90;;;;;;5008674;28;20053;-86
2023/03/21 19:53:46;;;;;;;14.13;11.73;;;10.10;99.90;;;;;;5009927;28;20074;-86
2023/03/21 19:56:13;;;;;;;13.55;11.75;;;10.00;99.90;;;;;;4995324;28;20041;-86
2023/03/21 19:58:40;;;;;;;15.70;11.90;;;10.10;99.90;;;;;;4965311;28;20122;-85
2023/03/21 20:01:34;;;;;;;15.95;11.10;;;10.40;99.90;;;;;;4977025;28;20120;-87
2023/03/21 20:04:55;;;;;;;19.20;10.07;;;10.00;99.90;;;;;;4964875;28;20054;-87
2023/03/21 20:07:24;;;;;;;11.68;10.45;;;10.10;99.90;;;;;;4916776;29;20127;-87
2023/03/21 20:10:17;;;;;;;11.68;10.48;;;10.50;99.90;;;;;;4928640;28;20505;-86
2023/03/21 20:13:14;;;;;;;13.65;9.82;;;10.10;99.90;;;;;;4939418;28;20178;-86
2023/03/21 20:20:00;;;;;;;17.20;10.43;;;10.10;99.90;;;;;;5007997;28;20060;-85
2023/03/21 20:22:26;;;;;;;14.23;10.80;;;10.00;99.90;;;;;;4975645;28;20700;-85
2023/03/21 20:24:52;;;;;;;12.63;11.43;;;10.00;99.90;;;;;;4989446;28;20057;-85
2023/03/21 20:27:23;;;;;;;12.18;10.98;;;9.60;99.90;;;;;;4971493;28;20034;-85
2023/03/21 20:29:50;;;;;;;13.98;11.63;;;10.10;99.90;;;;;;4967401;28;20077;-85
2023/03/21 20:32:15;;;;;;;12.50;11.18;;;10.00;99.90;;;;;;4974042;28;20033;-85
2023/03/21 20:34:43;;;;;;;12.90;10.60;;;10.00;99.90;;;;;;5001442;28;20194;-85
2023/03/21 20:37:22;;;;;;;14.32;12.80;;;10.20;99.90;;;;;;4973449;28;20069;-85
2023/03/21 20:39:56;;;;;;;14.65;11.70;;;10.00;99.90;;;;;;5004215;28;20077;-85
2023/03/21 20:42:38;;;;;;;16.35;11.93;;;10.50;99.90;;;;;;4990403;28;20165;-85
2023/03/21 20:45:23;;;;;;;12.80;11.27;;;10.30;99.90;;;;;;4980376;28;20500;-85
2023/03/21 20:47:54;;;;;;;12.90;11.57;;;10.30;99.90;;;;;;4971627;28;21098;-85
2023/03/21 20:50:21;;;;;;;15.95;10.93;;;9.80;99.90;;;;;;5006938;28;20046;-86
2023/03/21 20:52:47;;;;;;;13.73;12.32;;;9.70;99.90;;;;;;4987370;28;20058;-86
2023/03/21 20:55:27;;;;;;;14.77;12.45;;;9.90;99.90;;;;;;4975783;28;20046;-86
2023/03/21 20:57:59;;;;;;;13.38;12.07;;;9.90;99.90;;;;;;4984748;28;20057;-86
2023/03/21 21:01:03;;;;;;;14.98;12.45;;;9.90;99.90;;;;;;4939534;28;20134;-86
2023/03/21 21:04:23;;;;;;;13.95;12.07;;;9.90;99.90;;;;;;4943890;28;20126;-87
2023/03/21 21:07:26;;;;;;;15.80;14.15;;;9.90;99.90;;;;;;4950688;28;20033;-87
2023/03/21 21:18:25;;;;;;;19.10;13.75;;;9.90;99.90;;;;;;4839360;29;20291;-87
2023/03/21 21:21:59;;;;;;;15.90;14.35;;;9.90;99.90;;;;;;4837107;29;20050;-87
2023/03/21 21:25:44;;;;;;;17.15;14.15;;;10.00;99.90;;;;;;4850077;29;20052;-87
2023/03/21 21:32:18;;;;;;;16.97;15.27;;;10.00;99.90;;;;;;4787107;29;20785;-87
2023/03/21 21:34:44;;;;;;;18.95;14.77;;;10.00;99.90;;;;;;4854644;29;20086;-86
2023/03/21 21:38:21;;;;;;;18.25;15.05;;;10.00;99.90;;;;;;4858976;29;20174;-87
2023/03/21 21:41:54;;;;;;;18.48;16.77;;;9.90;99.90;;;;;;4881939;29;20161;-87
2023/03/21 21:45:01;;;;;;;18.60;16.77;;;9.60;99.90;;;;;;4895228;29;20200;-86
2023/03/21 21:47:45;;;;;;;18.67;17.08;;;9.90;99.90;;;;;;4893084;29;20056;-86
2023/03/21 21:50:34;;;;;;;18.70;16.90;;;9.80;99.90;;;;;;4875101;29;20051;-86
2023/03/21 21:57:56;;;;;;;22.17;17.92;;;9.80;99.90;;;;;;4875102;29;20447;-87
2023/03/21 22:04:10;;;;;;;20.83;17.50;;;9.90;99.90;;;;;;4911633;29;20074;-87
2023/03/21 22:07:15;;;;;;;18.40;16.48;;;9.80;99.90;;;;;;4911637;29;20052;-87
2023/03/21 22:10:11;;;;;;;19.15;17.15;;;9.90;99.90;;;;;;4907970;28;20050;-87
2023/03/21 22:13:19;;;;;;;17.42;15.65;;;9.90;99.90;;;;;;4994055;28;20091;-86
2023/03/21 22:16:39;;;;;;;19.25;15.85;;;10.00;99.90;;;;;;4983750;28;20042;-87
2023/03/21 22:19:38;;;;;;;17.42;14.68;;;9.90;99.90;;;;;;4951992;28;20066;-86
2023/03/21 22:22:07;;;;;;;15.93;14.20;;;9.90;99.90;;;;;;4998087;28;20137;-86
2023/03/21 22:25:07;;;;;;;16.63;13.73;;;9.90;99.90;;;;;;4975835;28;20037;-86
2023/03/21 22:28:58;;;;;;;14.65;13.23;;;10.00;99.90;;;;;;5005965;28;20040;-86
2023/03/21 22:31:28;;;;;;;16.00;13.18;;;9.90;99.90;;;;;;4992157;28;20051;-86
2023/03/21 22:34:27;;;;;;;16.10;14.48;;;11.30;99.90;;;;;;4976118;28;20041;-87
2023/03/21 22:37:32;;;;;;;15.85;13.15;;;10.00;99.90;;;;;;4979609;28;20065;-87
2023/03/21 22:40:52;;;;;;;14.82;13.25;;;10.00;99.90;;;;;;5008207;28;20038;-86
2023/03/21 22:43:27;;;;;;;14.98;13.27;;;10.00;99.90;;;;;;4985079;28;20058;-87
2023/03/21 22:46:16;;;;;;;13.60;12.25;;;10.10;99.90;;;;;;4978983;28;20037;-87
2023/03/21 22:49:10;;;;;;;14.43;12.70;;;10.00;99.90;;;;;;5008924;28;20065;-86
2023/03/21 22:51:47;;;;;;;14.32;12.07;;;10.10;99.90;;;;;;5009950;28;20047;-86
2023/03/21 22:54:16;;;;;;;15.77;12.55;;;10.90;99.90;;;;;;5010033;28;20558;-87
2023/03/21 22:57:18;;;;;;;16.67;12.27;;;11.20;99.90;;;;;;4972285;28;20143;-86
2023/03/21 23:00:31;;;;;;;14.48;11.68;;;10.10;99.90;;;;;;5008866;28;20093;-87
2023/03/21 23:02:58;;;;;;;14.70;10.40;;;10.70;99.90;;;;;;4977657;28;20065;-86
2023/03/21 23:06:06;;;;;;;10.52;8.80;;;10.10;99.90;;;;;;4995252;28;20042;-87
2023/03/21 23:09:09;;;;;;;13.85;7.68;;;10.50;99.90;;;;;;4994505;28;20048;-87
2023/03/21 23:15:44;;;;;;;9.68;7.13;;;10.30;99.90;;;;;;5006502;28;20042;-86
2023/03/21 23:19:14;;;;;;;8.27;7.10;;;10.30;99.90;;;;;;5002759;28;20048;-86
2023/03/21 23:26:02;;;;;;;13.80;6.20;;;10.40;99.90;;;;;;4989909;28;20431;-86
2023/03/21 23:29:27;;;;;;;13.43;6.85;;;10.30;99.90;;;;;;4990433;28;20113;-87
2023/03/21 23:31:55;;;;;;;12.35;6.25;;;10.20;99.90;;;;;;4977398;28;20531;-86
2023/03/21 23:34:26;;;;;;;11.55;6.63;;;10.20;99.90;;;;;;4997491;28;20069;-87
2023/03/21 23:37:10;;;;;;;9.68;6.40;;;10.80;99.90;;;;;;4989587;28;20067;-87
2023/03/21 23:42:34;;;;;;;11.23;6.15;;;10.20;99.90;;;;;;4995799;28;20045;-87
2023/03/21 23:45:40;;;;;;;10.52;5.90;;;10.30;99.90;;;;;;5008736;28;20108;-86
2023/03/21 23:48:32;;;;;;;9.95;5.43;;;10.20;99.90;;;;;;4986556;28;20093;-86
2023/03/21 23:51:42;;;;;;;14.00;6.40;;;10.20;99.90;;;;;;5004952;28;20084;-86
2023/03/21 23:54:35;;;;;;;8.05;5.25;;;11.00;99.90;;;;;;4995259;28;20053;-86
2023/03/21 23:57:57;;;;;;;16.27;5.78;;;10.30;99.90;;;;;;5000295;28;20045;-86
